createdAt,value
2023-09-07T00:01:26.570Z,78.50
2023-09-07T00:06:31.662Z,78.70
2023-09-07T00:11:35.767Z,78.80
2023-09-07T00:16:39.628Z,78.50
2023-09-07T00:21:45.332Z,78.90
2023-09-07T00:26:48.845Z,78.80
2023-09-07T00:31:52.360Z,78.60
2023-09-07T00:36:57.349Z,78.70
2023-09-07T00:42:00.839Z,78.50
2023-09-07T00:47:04.470Z,78.50
2023-09-07T00:52:10.861Z,78.70
2023-09-07T00:57:14.394Z,78.80
2023-09-07T01:02:18.045Z,78.60
2023-09-07T01:07:25.609Z,78.50
2023-09-07T01:12:29.112Z,78.60
2023-09-07T01:17:32.798Z,78.60
2023-09-07T01:22:38.529Z,78.70
2023-09-07T01:27:42.358Z,78.80
2023-09-07T01:32:45.890Z,78.80
2023-09-07T01:37:50.867Z,78.80
2023-09-07T01:42:54.356Z,78.80
2023-09-07T01:47:58.634Z,78.80
2023-09-07T01:53:04.662Z,78.50
2023-09-07T01:58:08.200Z,78.80
2023-09-07T02:03:11.952Z,78.70
2023-09-07T02:08:16.997Z,78.70
2023-09-07T02:13:20.538Z,78.60
2023-09-07T02:18:24.237Z,78.70
2023-09-07T02:23:29.214Z,78.80
2023-09-07T02:28:33.444Z,78.70
2023-09-07T02:33:38.793Z,78.70
2023-09-07T02:38:43.954Z,78.70
2023-09-07T02:43:47.549Z,78.70
2023-09-07T02:48:51.117Z,78.90
2023-09-07T02:53:56.282Z,78.80
2023-09-07T02:58:59.959Z,78.70
2023-09-07T03:04:05.099Z,78.70
2023-09-07T03:09:10.336Z,78.70
2023-09-07T03:14:13.923Z,78.80
2023-09-07T03:19:17.725Z,78.90
2023-09-07T03:24:22.799Z,78.80
2023-09-07T03:29:26.267Z,78.80
2023-09-07T03:34:30.091Z,78.80
2023-09-07T03:39:35.123Z,78.80
2023-09-07T03:44:40.769Z,78.80
2023-09-07T03:49:44.586Z,78.90
2023-09-07T03:54:49.492Z,78.70
2023-09-07T03:59:53.699Z,78.70
2023-09-07T04:04:57.765Z,78.70
2023-09-07T04:10:02.649Z,78.80
2023-09-07T04:15:07.076Z,78.90
2023-09-07T04:20:13.259Z,78.80
2023-09-07T04:25:18.416Z,78.70
2023-09-07T04:30:22.197Z,78.80
2023-09-07T04:35:30.758Z,78.90
2023-09-07T04:40:35.693Z,78.80
2023-09-07T04:45:39.307Z,78.80
2023-09-07T04:50:43.577Z,78.80
2023-09-07T04:55:48.442Z,78.80
2023-09-07T05:00:52.832Z,78.80
2023-09-07T05:05:57.494Z,79.00
2023-09-07T05:11:03.960Z,79.00
2023-09-07T05:16:07.702Z,78.90
2023-09-07T05:21:15.326Z,78.90
2023-09-07T05:26:26.208Z,79.00
2023-09-07T05:31:30.511Z,78.90
2023-09-07T05:36:34.175Z,78.90
2023-09-07T05:41:39.151Z,78.90
2023-09-07T05:46:42.751Z,78.70
2023-09-07T05:51:46.442Z,78.80
2023-09-07T05:56:51.354Z,79.00
2023-09-07T06:01:54.957Z,78.80
2023-09-07T06:06:58.980Z,78.70
2023-09-07T06:12:06.016Z,78.80
2023-09-07T06:17:09.766Z,79.00
2023-09-07T06:22:13.491Z,78.60
2023-09-07T06:27:18.430Z,78.70
2023-09-07T06:32:22.830Z,78.70
2023-09-07T06:37:27.680Z,78.90
2023-09-07T06:42:32.996Z,78.90
2023-09-07T06:47:36.855Z,79.00
2023-09-07T06:52:40.549Z,78.70
2023-09-07T06:57:45.490Z,78.60
2023-09-07T07:02:49.083Z,78.80
2023-09-07T07:07:52.724Z,79.00
2023-09-07T07:12:57.668Z,78.90
2023-09-07T07:18:01.766Z,79.00
2023-09-07T07:23:05.786Z,78.90
2023-09-07T07:28:11.646Z,78.70
2023-09-07T07:33:15.248Z,78.80
2023-09-07T07:38:19.509Z,78.90
2023-09-07T07:43:25.782Z,78.90
2023-09-07T07:48:30.866Z,78.90
2023-09-07T07:53:34.917Z,79.00
2023-09-07T07:58:40.808Z,78.90
2023-09-07T08:03:46.062Z,78.70
2023-09-07T08:08:50.359Z,79.00
2023-09-07T08:13:56.312Z,78.90
2023-09-07T08:19:00.026Z,78.80
2023-09-07T08:24:05.819Z,79.10
2023-09-07T08:29:13.670Z,78.90
2023-09-07T08:34:17.916Z,78.80
2023-09-07T08:39:24.092Z,79.00
2023-09-07T08:44:33.024Z,79.10
2023-09-07T08:49:36.950Z,79.00
2023-09-07T08:54:41.627Z,79.10
2023-09-07T08:59:46.936Z,79.00
2023-09-07T09:04:51.365Z,78.90
2023-09-07T09:10:06.532Z,79.30
2023-09-07T09:15:13.265Z,79.20
2023-09-07T09:20:25.092Z,78.90
2023-09-07T09:25:28.920Z,79.20
2023-09-07T09:30:34.438Z,79.10
2023-09-07T09:35:38.080Z,79.20
2023-09-07T09:40:41.735Z,79.00
2023-09-07T09:45:47.363Z,79.10
2023-09-07T09:50:52.516Z,79.10
2023-09-07T09:55:56.833Z,79.40
2023-09-07T10:01:07.788Z,79.00
2023-09-07T10:06:12.327Z,78.90
2023-09-07T10:11:15.860Z,79.00
2023-09-07T10:16:21.430Z,79.20
2023-09-07T10:21:29.232Z,78.90
2023-09-07T10:26:32.667Z,79.00
2023-09-07T10:31:52.281Z,79.00
2023-09-07T10:36:59.956Z,79.30
2023-09-07T10:42:04.537Z,78.90
2023-09-07T10:47:09.629Z,79.00
2023-09-07T10:52:13.699Z,79.10
2023-09-07T10:57:22.112Z,79.20
2023-09-07T11:02:28.712Z,79.30
2023-09-07T11:07:33.035Z,79.30
2023-09-07T11:12:40.650Z,79.30
2023-09-07T11:17:48.161Z,79.00
2023-09-07T11:23:04.854Z,79.00
2023-09-07T11:28:10.261Z,78.70
2023-09-07T11:33:18.764Z,78.60
2023-09-07T11:38:22.260Z,78.50
2023-09-07T11:43:26.235Z,78.70
2023-09-07T11:48:33.186Z,78.30
2023-09-07T11:53:36.675Z,78.30
2023-09-07T11:58:40.144Z,78.80
2023-09-07T12:03:45.941Z,78.40
2023-09-07T12:09:02.788Z,78.40
2023-09-07T12:14:07.394Z,78.00
2023-09-07T12:19:12.494Z,78.30
2023-09-07T12:24:16.777Z,78.50
2023-09-07T12:29:22.474Z,78.20
2023-09-07T12:34:29.047Z,77.80
2023-09-07T12:39:34.062Z,77.80
2023-09-07T12:44:37.897Z,78.10
2023-09-07T12:49:43.386Z,78.00
2023-09-07T12:54:46.931Z,78.20
2023-09-07T12:59:51.537Z,78.20
2023-09-07T13:04:58.629Z,78.30
2023-09-07T13:10:04.130Z,78.00
2023-09-07T13:15:09.698Z,78.00
2023-09-07T13:20:15.782Z,77.80
2023-09-07T13:25:20.506Z,77.90
2023-09-07T13:30:25.549Z,77.70
2023-09-07T13:35:32.827Z,77.50
2023-09-07T13:40:36.922Z,77.60
2023-09-07T13:45:41.894Z,77.60
2023-09-07T13:50:46.967Z,77.50
2023-09-07T13:55:51.945Z,78.00
2023-09-07T14:00:55.578Z,78.30
2023-09-07T14:06:00.956Z,78.50
2023-09-07T14:11:04.388Z,78.70
2023-09-07T14:16:08.739Z,78.80
2023-09-07T14:21:14.774Z,79.10
2023-09-07T14:26:18.263Z,78.90
2023-09-07T14:31:21.763Z,79.00
2023-09-07T14:36:26.687Z,78.70
2023-09-07T14:41:31.503Z,78.90
2023-09-07T14:46:35.162Z,78.90
2023-09-07T14:51:40.025Z,79.00
2023-09-07T14:56:43.691Z,79.10
2023-09-07T15:01:56.380Z,79.20
2023-09-07T15:07:05.856Z,79.10
2023-09-07T15:12:12.904Z,79.30
2023-09-07T15:17:16.529Z,79.40
2023-09-07T15:22:22.181Z,79.30
2023-09-07T15:27:25.974Z,79.50
2023-09-07T15:32:30.208Z,79.30
2023-09-07T15:37:35.318Z,79.40
2023-09-07T15:42:38.847Z,79.40
2023-09-07T15:47:42.538Z,79.40
2023-09-07T15:52:48.857Z,79.40
2023-09-07T15:57:52.654Z,79.60
2023-09-07T16:02:57.075Z,79.60
2023-09-07T16:08:02.030Z,79.30
2023-09-07T16:13:05.824Z,79.30
2023-09-07T16:18:09.394Z,79.30
2023-09-07T16:23:14.491Z,79.40
2023-09-07T16:28:18.105Z,79.40
2023-09-07T16:33:22.936Z,79.30
2023-09-07T16:38:27.813Z,79.30
2023-09-07T16:43:31.249Z,79.70
2023-09-07T16:48:35.517Z,79.50
2023-09-07T16:53:40.628Z,79.50
2023-09-07T16:59:08.685Z,79.30
2023-09-07T17:04:08.521Z,79.10
2023-09-07T17:09:14.236Z,79.30
2023-09-07T17:14:18.024Z,79.40
2023-09-07T17:19:21.868Z,79.20
2023-09-07T17:24:27.145Z,79.40
2023-09-07T17:29:30.890Z,79.20
2023-09-07T17:34:37.022Z,79.50
2023-09-07T17:39:41.966Z,79.40
2023-09-07T17:44:45.462Z,79.40
2023-09-07T17:49:49.702Z,79.30
2023-09-07T17:54:54.638Z,79.30
2023-09-07T17:59:58.095Z,79.60
2023-09-07T18:05:01.696Z,79.40
2023-09-07T18:10:09.128Z,79.20
2023-09-07T18:15:12.872Z,79.30
2023-09-07T18:20:19.116Z,79.30
2023-09-07T18:25:24.082Z,79.20
2023-09-07T18:30:27.563Z,79.20
2023-09-07T18:35:31.261Z,79.20
2023-09-07T18:40:36.137Z,79.20
2023-09-07T18:45:39.588Z,79.20
2023-09-07T18:50:43.026Z,79.60
2023-09-07T18:55:48.268Z,79.30
2023-09-07T19:00:51.734Z,79.20
2023-09-07T19:05:55.361Z,79.40
2023-09-07T19:11:00.306Z,79.40
2023-09-07T19:16:04.470Z,79.20
2023-09-07T19:21:21.585Z,79.50
2023-09-07T19:26:32.793Z,79.20
2023-09-07T19:31:36.712Z,79.30
2023-09-07T19:36:40.281Z,79.60
2023-09-07T19:41:45.194Z,79.20
2023-09-07T19:46:48.844Z,79.70
2023-09-07T19:51:52.620Z,79.40
2023-09-07T19:56:57.549Z,79.50
2023-09-07T20:02:02.617Z,79.30
2023-09-07T20:07:06.290Z,79.50
2023-09-07T20:12:11.444Z,79.70
2023-09-07T20:17:15.195Z,79.40
2023-09-07T20:22:18.812Z,79.50
2023-09-07T20:27:23.734Z,79.60
2023-09-07T20:32:27.238Z,79.50
2023-09-07T20:37:30.730Z,79.60
2023-09-07T20:42:35.558Z,79.60
2023-09-07T20:47:39.043Z,79.70
2023-09-07T20:52:43.471Z,79.80
2023-09-07T20:57:50.687Z,79.60
2023-09-07T21:02:54.293Z,79.60
2023-09-07T21:07:57.981Z,79.80
2023-09-07T21:13:04.919Z,79.60
2023-09-07T21:18:08.588Z,79.70
2023-09-07T21:23:13.349Z,79.60
2023-09-07T21:28:18.262Z,79.50
2023-09-07T21:33:21.691Z,79.70
2023-09-07T21:38:25.149Z,79.70
2023-09-07T21:43:30.200Z,79.70
2023-09-07T21:48:33.864Z,79.70
2023-09-07T21:53:40.422Z,79.60
2023-09-07T21:58:45.295Z,79.70
2023-09-07T22:03:49.715Z,79.50
2023-09-07T22:08:53.554Z,79.40
2023-09-07T22:13:58.510Z,79.50
2023-09-07T22:19:01.928Z,79.40
2023-09-07T22:24:06.005Z,79.50
2023-09-07T22:29:11.408Z,79.70
2023-09-07T22:34:15.092Z,79.70
2023-09-07T22:39:18.781Z,79.70
2023-09-07T22:44:23.739Z,79.60
2023-09-07T22:49:27.216Z,79.50
2023-09-07T22:54:30.644Z,79.60
2023-09-07T22:59:35.468Z,79.50
2023-09-07T23:04:38.979Z,79.60
2023-09-07T23:09:44.905Z,79.60
2023-09-07T23:14:49.706Z,79.70
2023-09-07T23:19:53.293Z,79.60
2023-09-07T23:24:56.709Z,79.80
2023-09-07T23:30:02.072Z,79.60
2023-09-07T23:35:06.200Z,79.70
2023-09-07T23:40:14.207Z,79.50
2023-09-07T23:45:19.374Z,79.50
2023-09-07T23:50:22.939Z,79.50
2023-09-07T23:55:26.410Z,79.60
